Time;durP1;ratioP1;P1;durP2;ratioP2;P2;SDS_P1;SDS_P2;PMS_P1;PMS_P2;Temp;Humidity;BMP_temperature;BMP_pressure;BME280_temperature;BME280_humidity;BME280_pressure;Samples;Min_cycle;Max_cycle;Signal;HPM_P1;HPM_P2
2023/05/17 00:02:20;;;;;;;;;;;;;;;13.82;94.36;100285.31;4921386;28;19925;-80
2023/05/17 00:04:46;;;;;;;;;;;;;;;13.82;94.38;100285.31;4902874;28;19930;-81
2023/05/17 00:07:13;;;;;;;;;;;;;;;13.81;94.68;100278.28;4905884;28;19993;-81
2023/05/17 00:09:39;;;;;;;;;;;;;;;13.82;95.15;100287.97;4935466;28;19926;-80
2023/05/17 00:12:06;;;;;;;;;;;;;;;13.93;94.67;100290.31;4932643;28;19922;-80
2023/05/17 00:14:33;;;;;;;;;;;;;;;14.09;92.56;100279.63;4922095;28;20577;-80
2023/05/17 00:16:59;;;;;;;;;;;;;;;14.03;92.86;100291.00;4921104;28;20062;-80
2023/05/17 00:19:26;;;;;;;;;;;;;;;13.99;93.09;100284.31;4916234;28;20471;-79
2023/05/17 00:21:53;;;;;;;;;;;;;;;14.03;92.83;100285.66;4915380;28;19922;-82
2023/05/17 00:24:22;;;;;;;;;;;;;;;14.00;92.33;100287.81;4944766;28;19972;-80
2023/05/17 00:26:48;;;;;;;;;;;;;;;13.65;92.86;100229.25;4927172;28;19933;-81
2023/05/17 00:29:15;;;;;;;;;;;;;;;13.91;93.11;100281.66;4926206;28;20114;-81
2023/05/17 00:31:41;;;;;;;;;;;;;;;13.91;93.53;100273.66;4931790;28;19922;-80
2023/05/17 00:34:10;;;;;;;;;;;;;;;13.96;93.46;100283.81;4935744;28;19922;-81
2023/05/17 00:36:37;;;;;;;;;;;;;;;13.99;93.06;100292.31;4931764;28;19922;-79
2023/05/17 00:39:03;;;;;;;;;;;;;;;13.96;93.26;100291.84;4943231;28;19929;-80
2023/05/17 00:41:30;;;;;;;;;;;;;;;13.93;93.41;100284.97;4924024;28;19930;-82
2023/05/17 00:43:59;;;;;;;;;;;;;;;13.96;93.75;100289.16;4929644;28;19922;-79
2023/05/17 00:46:26;;;;;;;;;;;;;;;13.93;93.99;100289.47;4922064;28;19922;-83
2023/05/17 00:48:53;;;;;;;;;;;;;;;13.83;95.00;100292.28;4940703;28;19922;-82
2023/05/17 00:51:20;;;;;;;;;;;;;;;13.85;95.13;100291.13;4938857;28;19929;-82
2023/05/17 00:53:50;;;;;;;;;;;;;;;13.15;96.07;100184.81;4904253;28;19993;-83
2023/05/17 00:56:21;;;;;;;;;;;;;;;13.79;96.21;100294.47;4944226;28;20217;-81
2023/05/17 00:58:51;;;;;;;;;;;;;;;13.47;96.45;100252.56;4948504;28;20535;-83
2023/05/17 01:01:22;;;;;;;;;;;;;;;13.87;96.10;100277.63;4939984;28;20388;-83
2023/05/17 01:03:48;;;;;;;;;;;;;;;13.99;94.82;100278.16;4922692;28;19937;-81
2023/05/17 01:06:15;;;;;;;;;;;;;;;13.88;95.27;100287.28;4950791;28;20004;-81
2023/05/17 01:08:44;;;;;;;;;;;;;;;13.77;97.28;100293.81;4945221;28;19926;-81
2023/05/17 01:11:25;;;;;;;;;;;;;;;13.68;98.75;100297.44;4922451;28;20411;-80
2023/05/17 01:14:17;;;;;;;;;;;;;;;13.39;100.00;100245.38;4909049;28;20280;-82
2023/05/17 01:16:53;;;;;;;;;;;;;;;13.73;99.20;100291.63;4853066;28;20016;-83
2023/05/17 01:19:40;;;;;;;;;;;;;;;13.78;98.74;100281.28;4870433;28;20152;-80
2023/05/17 01:22:39;;;;;;;;;;;;;;;13.48;97.58;100243.56;4877154;28;20488;-83
2023/05/17 01:25:26;;;;;;;;;;;;;;;13.83;96.81;100278.97;4882422;28;20471;-82
2023/05/17 01:28:07;;;;;;;;;;;;;;;13.90;96.13;100279.97;4880251;28;20353;-82
2023/05/17 01:30:48;;;;;;;;;;;;;;;13.98;95.41;100284.47;4886626;28;19938;-83
2023/05/17 01:33:20;;;;;;;;;;;;;;;13.87;95.64;100293.66;4892259;29;20384;-82
2023/05/17 01:35:49;;;;;;;;;;;;;;;13.79;96.38;100289.13;4902970;29;19927;-83
2023/05/17 01:38:16;;;;;;;;;;;;;;;13.85;95.71;100296.47;4893027;29;20301;-82
2023/05/17 01:40:51;;;;;;;;;;;;;;;13.88;95.94;100298.81;4878320;29;19922;-82
2023/05/17 01:43:32;;;;;;;;;;;;;;;13.83;95.76;100295.78;4869686;28;19926;-84
2023/05/17 01:46:15;;;;;;;;;;;;;;;13.78;96.58;100300.78;4909623;28;20332;-82
2023/05/17 01:48:54;;;;;;;;;;;;;;;13.84;96.50;100302.81;4923404;28;20113;-81
2023/05/17 01:51:22;;;;;;;;;;;;;;;13.85;96.25;100293.78;4911224;28;19936;-83
2023/05/17 01:53:54;;;;;;;;;;;;;;;13.82;96.27;100302.16;4911804;28;20280;-81
2023/05/17 01:56:26;;;;;;;;;;;;;;;13.39;96.17;100224.06;4922166;28;20383;-83
2023/05/17 01:58:55;;;;;;;;;;;;;;;13.76;95.98;100313.50;4905285;28;20310;-80
2023/05/17 02:01:23;;;;;;;;;;;;;;;13.76;96.39;100321.50;4937088;28;19925;-82
2023/05/17 02:03:50;;;;;;;;;;;;;;;13.70;97.19;100321.31;4938365;28;20332;-83
2023/05/17 02:06:24;;;;;;;;;;;;;;;13.74;96.98;100320.81;4933536;28;19922;-80
2023/05/17 02:09:03;;;;;;;;;;;;;;;13.68;97.70;100316.13;4930361;29;20361;-82
2023/05/17 02:11:31;;;;;;;;;;;;;;;13.72;97.34;100327.31;4919111;29;20018;-83
2023/05/17 02:14:00;;;;;;;;;;;;;;;13.66;97.73;100328.78;4922239;28;19973;-81
2023/05/17 02:16:29;;;;;;;;;;;;;;;13.65;98.85;100319.13;4950969;28;20264;-80
2023/05/17 02:18:56;;;;;;;;;;;;;;;13.63;98.31;100337.13;4947356;28;19929;-82
2023/05/17 02:21:22;;;;;;;;;;;;;;;13.68;97.67;100335.63;4949686;28;19926;-84
2023/05/17 02:23:49;;;;;;;;;;;;;;;13.67;97.62;100343.81;4943978;28;20404;-80
2023/05/17 02:26:17;;;;;;;;;;;;;;;13.32;98.16;100283.53;4946822;28;20462;-83
2023/05/17 02:28:44;;;;;;;;;;;;;;;13.61;98.58;100329.28;4952135;28;20298;-81
2023/05/17 02:31:10;;;;;;;;;;;;;;;13.63;97.85;100337.13;4950538;28;19930;-82
2023/05/17 02:33:37;;;;;;;;;;;;;;;13.68;98.49;100340.13;4930577;28;20253;-81
2023/05/17 02:36:04;;;;;;;;;;;;;;;13.67;98.35;100341.13;4945581;28;20000;-83
2023/05/17 02:38:30;;;;;;;;;;;;;;;13.61;98.65;100339.09;4944147;28;19925;-80
2023/05/17 02:40:57;;;;;;;;;;;;;;;13.66;98.78;100331.44;4940283;28;19926;-81
2023/05/17 02:43:24;;;;;;;;;;;;;;;13.64;98.73;100334.31;4929059;28;20158;-79
2023/05/17 02:45:51;;;;;;;;;;;;;;;13.66;98.69;100347.44;4910641;28;20137;-81
2023/05/17 02:48:22;;;;;;;;;;;;;;;13.71;98.84;100338.97;4919527;28;20056;-80
2023/05/17 02:50:51;;;;;;;;;;;;;;;13.68;98.59;100345.47;4928083;28;19922;-80
2023/05/17 02:53:18;;;;;;;;;;;;;;;13.67;98.66;100349.16;4929872;28;20323;-83
2023/05/17 02:55:44;;;;;;;;;;;;;;;13.65;98.74;100346.63;4927713;28;19926;-79
2023/05/17 02:58:11;;;;;;;;;;;;;;;13.67;99.17;100352.63;4928325;28;19926;-80
2023/05/17 03:00:37;;;;;;;;;;;;;;;13.69;99.20;100360.50;4930104;28;20335;-79
2023/05/17 03:03:07;;;;;;;;;;;;;;;13.68;99.59;100350.81;4934355;28;19937;-80
2023/05/17 03:05:34;;;;;;;;;;;;;;;13.70;99.00;100359.47;4946709;28;20052;-80
2023/05/17 03:08:01;;;;;;;;;;;;;;;13.75;98.86;100364.34;4932585;28;19929;-81
2023/05/17 03:10:27;;;;;;;;;;;;;;;13.76;97.79;100358.84;4956206;28;20004;-80
2023/05/17 03:12:57;;;;;;;;;;;;;;;13.73;98.00;100364.47;4895080;28;20036;-80
2023/05/17 03:15:31;;;;;;;;;;;;;;;13.70;98.46;100367.47;4886235;29;20130;-79
2023/05/17 03:17:57;;;;;;;;;;;;;;;13.67;98.71;100375.81;4893877;29;20743;-79
2023/05/17 03:20:27;;;;;;;;;;;;;;;13.70;98.79;100366.66;4883898;29;19935;-81
2023/05/17 03:22:57;;;;;;;;;;;;;;;13.73;98.14;100367.16;4883835;28;19942;-82
2023/05/17 03:25:30;;;;;;;;;;;;;;;13.38;98.74;100329.03;4896889;28;20197;-82
2023/05/17 03:28:04;;;;;;;;;;;;;;;13.73;98.71;100380.50;4926478;28;20013;-79
2023/05/17 03:30:30;;;;;;;;;;;;;;;13.73;98.04;100377.81;4936379;28;19922;-82
2023/05/17 03:32:57;;;;;;;;;;;;;;;13.76;97.44;100380.19;4903861;28;20199;-79
2023/05/17 03:35:24;;;;;;;;;;;;;;;13.71;98.47;100386.97;4885167;28;20016;-81
2023/05/17 03:37:51;;;;;;;;;;;;;;;13.65;98.58;100383.97;4924149;28;19930;-81
2023/05/17 03:40:20;;;;;;;;;;;;;;;13.72;98.65;100394.84;4910218;28;19941;-81
2023/05/17 03:42:47;;;;;;;;;;;;;;;13.69;98.37;100403.16;4947886;28;19922;-83
2023/05/17 03:45:15;;;;;;;;;;;;;;;13.63;98.84;100401.97;4926335;28;20002;-82
2023/05/17 03:47:42;;;;;;;;;;;;;;;13.63;98.98;100401.97;4921211;28;19930;-80
2023/05/17 03:50:09;;;;;;;;;;;;;;;13.74;97.83;100414.19;4927890;28;19965;-83
2023/05/17 03:52:35;;;;;;;;;;;;;;;13.75;98.08;100415.84;4928816;28;19922;-80
2023/05/17 03:55:08;;;;;;;;;;;;;;;13.69;98.31;100416.50;4930352;28;20243;-79
2023/05/17 03:57:34;;;;;;;;;;;;;;;13.76;98.35;100427.34;4924663;28;19922;-79
2023/05/17 04:00:07;;;;;;;;;;;;;;;13.75;98.61;100426.53;4925918;28;19933;-82
2023/05/17 04:02:34;;;;;;;;;;;;;;;13.71;98.52;100430.50;4930775;28;20115;-81
2023/05/17 04:05:01;;;;;;;;;;;;;;;13.78;98.34;100444.03;4916200;28;20831;-80
2023/05/17 04:07:28;;;;;;;;;;;;;;;13.78;97.57;100436.84;4938696;28;20001;-80
2023/05/17 04:09:58;;;;;;;;;;;;;;;13.77;98.10;100434.38;4927417;28;19928;-79
2023/05/17 04:12:25;;;;;;;;;;;;;;;13.74;98.02;100434.66;4938443;28;19922;-79
2023/05/17 04:14:54;;;;;;;;;;;;;;;13.50;97.55;100387.44;4933185;28;20315;-83
2023/05/17 04:17:21;;;;;;;;;;;;;;;13.78;98.24;100433.38;4927237;28;20012;-80
2023/05/17 04:19:47;;;;;;;;;;;;;;;13.76;97.99;100438.88;4921331;28;20051;-79
2023/05/17 04:22:14;;;;;;;;;;;;;;;13.77;98.08;100440.53;4915275;28;20230;-82
2023/05/17 04:24:41;;;;;;;;;;;;;;;13.75;98.16;100442.53;4925328;28;19928;-80
2023/05/17 04:27:08;;;;;;;;;;;;;;;13.68;98.68;100460.16;4935850;28;20118;-82
2023/05/17 04:29:35;;;;;;;;;;;;;;;13.69;98.61;100448.53;4916129;28;20322;-81
2023/05/17 04:32:01;;;;;;;;;;;;;;;13.68;99.35;100460.16;4894021;28;20464;-84
2023/05/17 04:34:31;;;;;;;;;;;;;;;13.40;97.89;100414.22;4903414;28;20320;-80
2023/05/17 04:36:58;;;;;;;;;;;;;;;13.66;97.60;100465.66;4943831;28;20242;-82
2023/05/17 04:39:25;;;;;;;;;;;;;;;13.63;98.22;100467.81;4919234;28;19933;-82
2023/05/17 04:41:54;;;;;;;;;;;;;;;13.62;98.64;100479.50;4920525;28;19925;-81
2023/05/17 04:44:20;;;;;;;;;;;;;;;13.61;98.62;100469.81;4922870;28;20146;-81
2023/05/17 04:46:47;;;;;;;;;;;;;;;13.62;98.14;100474.16;4943472;28;19958;-81
2023/05/17 04:49:14;;;;;;;;;;;;;;;13.60;98.01;100476.97;4927138;28;20351;-81
2023/05/17 04:51:40;;;;;;;;;;;;;;;13.62;98.24;100477.66;4932258;28;20204;-80
2023/05/17 04:54:07;;;;;;;;;;;;;;;13.63;97.94;100486.50;4961323;28;20332;-81
2023/05/17 04:56:36;;;;;;;;;;;;;;;13.63;98.12;100491.81;4929072;28;19926;-81
2023/05/17 04:59:05;;;;;;;;;;;;;;;13.58;98.09;100496.81;4928661;28;19933;-82
2023/05/17 05:01:35;;;;;;;;;;;;;;;13.33;98.31;100450.50;4918839;28;20012;-83
2023/05/17 05:04:05;;;;;;;;;;;;;;;13.58;98.70;100496.81;4922234;28;19958;-82
2023/05/17 05:06:33;;;;;;;;;;;;;;;13.62;98.42;100511.50;4941869;28;19922;-81
2023/05/17 05:09:03;;;;;;;;;;;;;;;13.60;98.83;100508.16;4936245;28;19922;-83
2023/05/17 05:11:30;;;;;;;;;;;;;;;13.55;98.88;100505.13;4931374;28;19922;-81
2023/05/17 05:13:59;;;;;;;;;;;;;;;13.56;98.95;100512.94;4938533;28;20384;-81
2023/05/17 05:16:25;;;;;;;;;;;;;;;13.59;99.06;100511.78;4946700;28;19928;-83
2023/05/17 05:18:52;;;;;;;;;;;;;;;13.61;99.00;100525.81;4934676;28;19930;-82
2023/05/17 05:21:20;;;;;;;;;;;;;;;13.60;98.43;100511.66;4946128;28;20729;-81
2023/05/17 05:23:46;;;;;;;;;;;;;;;13.68;97.31;100509.00;4939780;28;20439;-82
2023/05/17 05:26:13;;;;;;;;;;;;;;;13.64;97.68;100517.50;4950222;28;19932;-82
2023/05/17 05:28:40;;;;;;;;;;;;;;;13.65;97.85;100521.84;4951822;28;20399;-81
2023/05/17 05:31:06;;;;;;;;;;;;;;;13.62;98.38;100508.84;4941288;28;20247;-81
2023/05/17 05:33:38;;;;;;;;;;;;;;;13.34;97.85;100450.31;4903023;28;19953;-83
2023/05/17 05:36:07;;;;;;;;;;;;;;;13.65;97.02;100505.84;4907268;28;20378;-81
2023/05/17 05:38:38;;;;;;;;;;;;;;;13.67;96.46;100501.19;4915121;28;20368;-82
2023/05/17 05:41:16;;;;;;;;;;;;;;;13.72;95.51;100498.03;4928246;28;19957;-81
2023/05/17 05:43:47;;;;;;;;;;;;;;;13.36;95.82;100467.00;4891850;28;19925;-80
2023/05/17 05:46:27;;;;;;;;;;;;;;;13.64;96.31;100520.16;4893533;28;20281;-83
2023/05/17 05:49:06;;;;;;;;;;;;;;;13.33;98.61;100491.31;4916169;28;19922;-81
2023/05/17 05:51:37;;;;;;;;;;;;;;;13.30;99.07;100486.31;4888669;28;20288;-82
2023/05/17 05:54:09;;;;;;;;;;;;;;;13.58;98.62;100534.16;4906422;28;19926;-81
2023/05/17 05:56:36;;;;;;;;;;;;;;;13.61;98.25;100549.81;4921339;28;20124;-81
2023/05/17 05:59:05;;;;;;;;;;;;;;;13.63;97.91;100545.16;4920963;28;20287;-81
2023/05/17 06:01:34;;;;;;;;;;;;;;;13.76;96.80;100526.91;4939277;28;19932;-80
2023/05/17 06:04:01;;;;;;;;;;;;;;;13.89;94.89;100529.97;4943494;28;20435;-80
2023/05/17 06:06:28;;;;;;;;;;;;;;;13.77;95.23;100533.09;4928364;28;19976;-79
2023/05/17 06:08:58;;;;;;;;;;;;;;;13.70;96.66;100548.88;4923903;29;20039;-80
2023/05/17 06:11:31;;;;;;;;;;;;;;;13.68;96.91;100561.53;4910231;29;20144;-81
2023/05/17 06:13:57;;;;;;;;;;;;;;;13.60;97.88;100546.31;4965439;28;19976;-82
2023/05/17 06:16:26;;;;;;;;;;;;;;;13.65;97.29;100537.84;4939955;28;19969;-81
2023/05/17 06:18:53;;;;;;;;;;;;;;;13.65;97.57;100551.19;4948794;28;19977;-81
2023/05/17 06:21:19;;;;;;;;;;;;;;;13.61;98.05;100563.16;4928483;28;19922;-81
2023/05/17 06:23:48;;;;;;;;;;;;;;;13.65;99.38;100564.53;4947827;28;19926;-80
2023/05/17 06:26:14;;;;;;;;;;;;;;;13.67;99.61;100557.22;4956524;28;20334;-83
2023/05/17 06:28:41;;;;;;;;;;;;;;;13.68;98.67;100564.22;4944231;28;19928;-79
2023/05/17 06:31:08;;;;;;;;;;;;;;;13.67;98.10;100578.56;4943807;28;20198;-81
2023/05/17 06:33:37;;;;;;;;;;;;;;;13.69;98.52;100571.22;4952763;28;20379;-81
2023/05/17 06:36:04;;;;;;;;;;;;;;;13.66;98.18;100569.69;4942841;28;20291;-82
2023/05/17 06:38:31;;;;;;;;;;;;;;;13.68;97.93;100562.38;4931154;28;20347;-81
2023/05/17 06:40:57;;;;;;;;;;;;;;;13.74;97.64;100574.25;4948624;28;19922;-79
2023/05/17 06:43:26;;;;;;;;;;;;;;;13.72;97.81;100584.25;4949889;28;20345;-79
2023/05/17 06:45:52;;;;;;;;;;;;;;;13.78;97.25;100575.59;4913905;28;19973;-82
2023/05/17 06:48:19;;;;;;;;;;;;;;;13.37;97.30;100524.66;4901235;28;20229;-81
2023/05/17 06:50:46;;;;;;;;;;;;;;;13.75;98.29;100594.59;4880740;28;20769;-81
2023/05/17 06:53:13;;;;;;;;;;;;;;;13.73;98.47;100591.25;4890082;28;19944;-82
2023/05/17 06:55:42;;;;;;;;;;;;;;;13.21;98.70;100503.22;4928453;28;20352;-82
2023/05/17 06:58:10;;;;;;;;;;;;;;;13.72;98.81;100608.25;4946515;28;19926;-80
2023/05/17 07:00:37;;;;;;;;;;;;;;;13.77;98.40;100595.28;4918298;28;19933;-82
2023/05/17 07:03:04;;;;;;;;;;;;;;;13.82;98.54;100613.50;4930969;28;19969;-83
2023/05/17 07:05:31;;;;;;;;;;;;;;;13.89;98.89;100609.19;4948594;28;19980;-81
2023/05/17 07:07:58;;;;;;;;;;;;;;;13.92;98.26;100618.72;4895631;28;19929;-82
2023/05/17 07:10:25;;;;;;;;;;;;;;;14.04;97.36;100614.78;4928882;28;20155;-80
2023/05/17 07:12:52;;;;;;;;;;;;;;;14.05;97.62;100619.13;4933961;28;19922;-82
2023/05/17 07:15:18;;;;;;;;;;;;;;;14.09;97.71;100625.81;4932237;28;19922;-79
2023/05/17 07:17:45;;;;;;;;;;;;;;;14.09;96.85;100631.16;4945461;28;19928;-82
2023/05/17 07:20:13;;;;;;;;;;;;;;;14.09;97.04;100645.34;4951442;28;20430;-80
2023/05/17 07:22:43;;;;;;;;;;;;;;;14.08;97.73;100650.84;4951715;28;19925;-84
2023/05/17 07:25:13;;;;;;;;;;;;;;;13.79;97.40;100587.97;4939505;28;19922;-84
2023/05/17 07:27:50;;;;;;;;;;;;;;;14.14;96.58;100634.19;4899046;28;20269;-85
2023/05/17 07:30:32;;;;;;;;;;;;;;;14.07;97.28;100638.47;4915004;28;20479;-80
2023/05/17 07:33:17;;;;;;;;;;;;;;;14.16;97.35;100637.53;4908400;28;20057;-83
2023/05/17 07:35:43;;;;;;;;;;;;;;;14.26;95.69;100637.41;4898784;28;20183;-80
2023/05/17 07:38:10;;;;;;;;;;;;;;;14.19;96.20;100642.56;4923301;28;20175;-82
2023/05/17 07:40:39;;;;;;;;;;;;;;;14.18;95.90;100634.72;4934525;28;20364;-80
2023/05/17 07:43:10;;;;;;;;;;;;;;;14.20;95.85;100632.69;4930822;28;20278;-81
2023/05/17 07:45:41;;;;;;;;;;;;;;;13.85;95.97;100592.66;4931014;28;19929;-82
2023/05/17 07:48:08;;;;;;;;;;;;;;;14.20;95.79;100646.06;4950831;28;20531;-82
2023/05/17 07:50:35;;;;;;;;;;;;;;;14.16;96.31;100650.06;4945028;28;19992;-81
2023/05/17 07:53:04;;;;;;;;;;;;;;;13.92;95.96;100602.72;4947090;28;19921;-83
2023/05/17 07:55:41;;;;;;;;;;;;;;;14.20;96.41;100665.59;4957757;28;20099;-79
2023/05/17 07:58:16;;;;;;;;;;;;;;;14.24;95.96;100661.59;4937566;28;19929;-80
2023/05/17 08:00:43;;;;;;;;;;;;;;;14.26;96.59;100670.28;4952610;28;19926;-80
2023/05/17 08:03:10;;;;;;;;;;;;;;;14.32;95.61;100671.47;4949409;28;20394;-81
2023/05/17 08:05:36;;;;;;;;;;;;;;;13.93;96.45;100617.72;4949641;28;19922;-80
2023/05/17 08:08:03;;;;;;;;;;;;;;;14.21;96.99;100682.44;4945212;28;19984;-80
2023/05/17 08:10:30;;;;;;;;;;;;;;;14.20;97.71;100686.09;4946161;28;20023;-81
2023/05/17 08:12:58;;;;;;;;;;;;;;;14.24;97.41;100687.47;4919863;28;20121;-80
2023/05/17 08:15:25;;;;;;;;;;;;;;;14.31;96.66;100689.34;4943469;28;20374;-82
2023/05/17 08:17:56;;;;;;;;;;;;;;;13.96;97.18;100654.78;4897433;28;20020;-82
2023/05/17 08:20:30;;;;;;;;;;;;;;;14.31;97.15;100704.53;4934084;28;20252;-82
2023/05/17 08:22:56;;;;;;;;;;;;;;;14.32;97.26;100699.03;4912620;28;20120;-83
2023/05/17 08:25:23;;;;;;;;;;;;;;;14.30;97.79;100708.22;4935260;28;19944;-77
2023/05/17 08:27:51;;;;;;;;;;;;;;;14.39;97.56;100709.06;4933612;28;19925;-81
2023/05/17 08:30:18;;;;;;;;;;;;;;;14.39;97.71;100719.75;4955671;28;19921;-80
2023/05/17 08:32:55;;;;;;;;;;;;;;;14.39;97.39;100717.09;4936400;28;19960;-80
2023/05/17 08:35:26;;;;;;;;;;;;;;;14.44;97.37;100726.31;4938494;28;20190;-80
2023/05/17 08:37:54;;;;;;;;;;;;;;;14.38;99.02;100721.59;4922120;28;19928;-81
2023/05/17 08:40:28;;;;;;;;;;;;;;;14.49;98.86;100723.16;4937881;28;20395;-81
2023/05/17 08:42:57;;;;;;;;;;;;;;;14.25;98.18;100673.97;4922722;28;20009;-82
2023/05/17 08:45:25;;;;;;;;;;;;;;;14.55;98.27;100724.41;4924547;28;20286;-80
2023/05/17 08:47:55;;;;;;;;;;;;;;;14.63;97.99;100725.25;4912780;28;19925;-81
2023/05/17 08:50:25;;;;;;;;;;;;;;;14.74;97.63;100721.50;4934985;28;20215;-79
2023/05/17 08:52:53;;;;;;;;;;;;;;;14.73;97.00;100726.00;4935286;28;19929;-81
2023/05/17 08:55:19;;;;;;;;;;;;;;;14.67;97.59;100731.97;4924223;28;19922;-82
2023/05/17 08:57:50;;;;;;;;;;;;;;;14.71;98.15;100736.00;4908430;28;20323;-82
2023/05/17 09:00:24;;;;;;;;;;;;;;;14.66;98.27;100734.78;4908903;28;20152;-83
2023/05/17 09:02:52;;;;;;;;;;;;;;;14.65;99.25;100743.81;4951757;28;19988;-80
2023/05/17 09:05:22;;;;;;;;;;;;;;;14.68;98.73;100738.97;4948858;28;19922;-81
2023/05/17 09:07:48;;;;;;;;;;;;;;;14.80;97.67;100741.38;4904761;28;20716;-80
2023/05/17 09:10:21;;;;;;;;;;;;;;;14.44;98.14;100704.09;4904465;28;20025;-82
2023/05/17 09:12:55;;;;;;;;;;;;;;;14.73;98.96;100751.84;4919806;28;19930;-80
2023/05/17 09:15:23;;;;;;;;;;;;;;;14.73;98.82;100760.75;4918661;28;19929;-82
2023/05/17 09:17:50;;;;;;;;;;;;;;;14.79;98.23;100766.44;4924852;28;19922;-81
2023/05/17 09:20:22;;;;;;;;;;;;;;;14.80;97.79;100757.41;4942595;28;20244;-81
2023/05/17 09:22:53;;;;;;;;;;;;;;;14.80;97.78;100770.78;4941426;28;19921;-81
2023/05/17 09:25:22;;;;;;;;;;;;;;;14.85;97.54;100771.13;4957372;28;20288;-80
2023/05/17 09:27:51;;;;;;;;;;;;;;;14.81;97.89;100775.13;4937351;28;19922;-81
2023/05/17 09:30:25;;;;;;;;;;;;;;;14.78;97.97;100778.09;4941358;28;19929;-82
2023/05/17 09:32:52;;;;;;;;;;;;;;;14.84;97.49;100777.47;4956472;28;20376;-81
2023/05/17 09:35:28;;;;;;;;;;;;;;;14.79;97.65;100788.66;4959713;28;19926;-80
2023/05/17 09:38:16;;;;;;;;;;;;;;;14.80;97.98;100789.47;4936656;28;20008;-81
2023/05/17 09:40:51;;;;;;;;;;;;;;;14.87;97.48;100809.22;4929918;28;19928;-80
2023/05/17 09:43:22;;;;;;;;;;;;;;;14.86;97.68;100804.91;4942691;28;20288;-80
2023/05/17 09:45:58;;;;;;;;;;;;;;;14.85;98.01;100813.88;4956664;28;19961;-81
2023/05/17 09:48:29;;;;;;;;;;;;;;;14.85;97.61;100813.88;4943403;28;19937;-80
2023/05/17 09:51:02;;;;;;;;;;;;;;;14.93;96.85;100824.66;4936774;28;19922;-80
2023/05/17 09:53:30;;;;;;;;;;;;;;;14.90;96.99;100822.28;4932164;28;19933;-79
2023/05/17 09:55:58;;;;;;;;;;;;;;;14.94;96.73;100827.13;4946391;28;20285;-80
2023/05/17 09:58:26;;;;;;;;;;;;;;;14.95;96.91;100834.19;4932843;28;19922;-82
2023/05/17 10:00:53;;;;;;;;;;;;;;;14.98;97.13;100840.19;4934930;28;19932;-79
2023/05/17 10:03:21;;;;;;;;;;;;;;;15.01;96.62;100843.38;4951778;28;20356;-80
2023/05/17 10:05:52;;;;;;;;;;;;;;;14.75;96.36;100792.63;4948155;28;19933;-82
2023/05/17 10:08:22;;;;;;;;;;;;;;;14.97;97.26;100839.34;4929041;28;20368;-80
2023/05/17 10:10:50;;;;;;;;;;;;;;;14.96;97.12;100848.38;4936987;28;20092;-81
2023/05/17 10:13:23;;;;;;;;;;;;;;;14.99;96.78;100842.69;4951167;28;19922;-81
2023/05/17 10:15:50;;;;;;;;;;;;;;;14.93;97.04;100843.34;4935839;28;20008;-82
2023/05/17 10:18:17;;;;;;;;;;;;;;;14.94;97.24;100850.38;4958141;28;19942;-79
2023/05/17 10:20:52;;;;;;;;;;;;;;;14.92;96.69;100847.00;4947921;28;19937;-82
2023/05/17 10:23:20;;;;;;;;;;;;;;;14.94;96.73;100853.03;4926071;28;19922;-80
2023/05/17 10:25:50;;;;;;;;;;;;;;;14.85;98.51;100854.81;4943142;28;20332;-81
2023/05/17 10:28:18;;;;;;;;;;;;;;;14.91;96.80;100861.38;4947672;28;19930;-81
2023/05/17 10:30:46;;;;;;;;;;;;;;;14.90;96.93;100867.72;4957867;28;20299;-80
2023/05/17 10:33:16;;;;;;;;;;;;;;;14.84;97.72;100861.16;4946719;28;20189;-82
2023/05/17 10:35:45;;;;;;;;;;;;;;;14.85;99.59;100862.00;4930318;28;20404;-81
2023/05/17 10:38:12;;;;;;;;;;;;;;;14.89;98.81;100863.38;4914508;28;19925;-81
2023/05/17 10:40:41;;;;;;;;;;;;;;;14.95;99.05;100868.94;4930837;28;19929;-80
2023/05/17 10:43:09;;;;;;;;;;;;;;;14.98;98.91;100866.91;4937614;28;20393;-81
2023/05/17 10:45:40;;;;;;;;;;;;;;;14.98;98.72;100866.91;4929736;28;20024;-80
2023/05/17 10:48:08;;;;;;;;;;;;;;;14.99;98.88;100858.75;4940239;28;20225;-79
2023/05/17 10:50:40;;;;;;;;;;;;;;;15.06;99.25;100859.78;4931307;28;20339;-81
2023/05/17 10:53:26;;;;;;;;;;;;;;;15.08;98.72;100862.31;4938860;28;19922;-81
2023/05/17 10:55:53;;;;;;;;;;;;;;;15.17;98.12;100869.38;4946597;28;20167;-82
2023/05/17 10:58:29;;;;;;;;;;;;;;;15.21;98.19;100864.53;4927913;28;19922;-81
2023/05/17 11:01:02;;;;;;;;;;;;;;;14.96;97.62;100821.66;4943522;28;19972;-82
2023/05/17 11:03:29;;;;;;;;;;;;;;;15.21;96.24;100867.22;4954177;28;19929;-80
2023/05/17 11:06:16;;;;;;;;;;;;;;;15.18;96.89;100868.38;4951557;28;19929;-81
2023/05/17 11:09:09;;;;;;;;;;;;;;;15.17;97.06;100870.22;4958776;28;19957;-81
2023/05/17 11:11:57;;;;;;;;;;;;;;;15.20;97.89;100869.06;4923808;29;19981;-81
2023/05/17 11:14:24;;;;;;;;;;;;;;;15.23;97.37;100875.91;4934840;28;20191;-80
2023/05/17 11:16:58;;;;;;;;;;;;;;;15.29;97.61;100869.91;4957571;28;19922;-81
2023/05/17 11:19:25;;;;;;;;;;;;;;;15.28;96.61;100870.94;4946886;28;20214;-80
2023/05/17 11:21:52;;;;;;;;;;;;;;;15.28;95.29;100878.94;4932374;28;20045;-81
2023/05/17 11:24:25;;;;;;;;;;;;;;;15.33;97.10;100881.97;4941817;28;19948;-79
2023/05/17 11:26:53;;;;;;;;;;;;;;;15.34;97.64;100880.97;4957859;28;20036;-82
2023/05/17 11:29:20;;;;;;;;;;;;;;;15.35;95.63;100888.00;4956504;28;20300;-80
2023/05/17 11:31:51;;;;;;;;;;;;;;;15.37;96.73;100876.16;4958345;28;19933;-81
2023/05/17 11:34:18;;;;;;;;;;;;;;;15.43;97.97;100882.69;4945315;28;19926;-80
2023/05/17 11:36:50;;;;;;;;;;;;;;;15.47;96.83;100886.72;4952862;28;20292;-80
2023/05/17 11:39:26;;;;;;;;;;;;;;;15.47;96.44;100886.72;4936282;28;20251;-79
2023/05/17 11:41:55;;;;;;;;;;;;;;;15.52;97.02;100886.25;4941815;28;20016;-80
2023/05/17 11:44:33;;;;;;;;;;;;;;;15.54;96.85;100885.06;4938368;28;20342;-80
2023/05/17 11:47:05;;;;;;;;;;;;;;;15.64;97.01;100886.78;4943055;28;19933;-80
2023/05/17 11:49:33;;;;;;;;;;;;;;;15.68;95.46;100885.44;4941771;28;19929;-80
2023/05/17 11:52:03;;;;;;;;;;;;;;;15.71;96.27;100888.66;4930189;28;20299;-81
2023/05/17 11:54:30;;;;;;;;;;;;;;;15.73;95.98;100885.84;4942063;28;20288;-81
2023/05/17 11:56:57;;;;;;;;;;;;;;;15.77;95.33;100881.81;4934091;28;19956;-79
2023/05/17 11:59:25;;;;;;;;;;;;;;;15.75;95.41;100889.16;4946914;28;20225;-79
2023/05/17 12:01:52;;;;;;;;;;;;;;;15.77;96.71;100897.88;4939556;28;20074;-78
2023/05/17 12:04:23;;;;;;;;;;;;;;;15.76;96.14;100890.88;4938508;28;19929;-79
2023/05/17 12:06:53;;;;;;;;;;;;;;;15.26;96.27;100811.41;4948843;28;19922;-80
2023/05/17 12:09:21;;;;;;;;;;;;;;;15.79;96.30;100898.56;4952634;28;19922;-78
2023/05/17 12:11:48;;;;;;;;;;;;;;;15.84;95.60;100896.22;4922103;28;20407;-78
2023/05/17 12:14:19;;;;;;;;;;;;;;;15.60;94.23;100846.13;4944642;28;19922;-80
2023/05/17 12:16:58;;;;;;;;;;;;;;;15.65;94.85;100850.97;4919209;28;19922;-79
2023/05/17 12:19:34;;;;;;;;;;;;;;;15.92;94.23;100900.75;4926249;28;20016;-80
2023/05/17 12:22:14;;;;;;;;;;;;;;;15.94;94.67;100901.44;4918437;28;20556;-78
2023/05/17 12:24:50;;;;;;;;;;;;;;;15.94;92.20;100909.47;4905186;28;20153;-79
2023/05/17 12:27:26;;;;;;;;;;;;;;;15.88;90.79;100907.47;4933881;28;20019;-79
2023/05/17 12:29:58;;;;;;;;;;;;;;;15.59;90.32;100858.66;4900774;28;20165;-80
2023/05/17 12:32:32;;;;;;;;;;;;;;;15.94;91.08;100914.81;4876060;28;19991;-80
2023/05/17 12:34:59;;;;;;;;;;;;;;;15.94;90.95;100914.81;4940183;28;19922;-79
2023/05/17 12:37:29;;;;;;;;;;;;;;;15.92;90.43;100912.31;4927475;28;19922;-79
2023/05/17 12:40:00;;;;;;;;;;;;;;;15.94;90.37;100918.34;4922178;28;20310;-79
2023/05/17 12:42:27;;;;;;;;;;;;;;;15.97;89.52;100922.53;4912167;28;20646;-80
2023/05/17 12:44:59;;;;;;;;;;;;;;;15.93;90.02;100927.38;4942769;28;19933;-79
2023/05/17 12:47:32;;;;;;;;;;;;;;;15.94;89.98;100926.38;4917053;28;19973;-80
2023/05/17 12:49:59;;;;;;;;;;;;;;;15.94;90.40;100934.41;4908189;28;20095;-78